Time;durP1;ratioP1;P1;durP2;ratioP2;P2;SDS_P1;SDS_P2;PMS_P1;PMS_P2;Temp;Humidity;BMP_temperature;BMP_pressure;BME280_temperature;BME280_humidity;BME280_pressure;Samples;Min_cycle;Max_cycle;Signal;HPM_P1;HPM_P2
2023/03/10 00:00:25;;;;;;;10.80;5.90;;;;;;;7.01;88.16;97117.08;218688;1290;22628;-76
2023/03/10 00:05:27;;;;;;;8.40;5.10;;;;;;;7.14;87.91;97108.89;218754;1296;22554;-76
2023/03/10 00:10:33;;;;;;;10.60;4.50;;;;;;;7.28;87.97;97106.09;218824;1297;24286;-75
2023/03/10 00:15:38;;;;;;;5.80;3.00;;;;;;;7.36;87.59;97100.68;218636;1286;22546;-75
2023/03/10 00:20:41;;;;;;;5.50;3.40;;;;;;;7.46;87.37;97097.52;218582;1297;22784;-76
2023/03/10 00:25:43;;;;;;;6.10;3.00;;;;;;;7.56;86.73;97102.33;218892;1290;22555;-74
2023/03/10 00:30:57;;;;;;;5.10;3.20;;;;;;;7.60;86.84;97095.39;218676;1292;22685;-75
2023/03/10 00:36:06;;;;;;;6.30;3.30;;;;;;;7.65;86.40;97101.67;218671;1295;25264;-76
2023/03/10 00:41:14;;;;;;;6.20;3.40;;;;;;;7.72;86.17;97106.04;218584;1296;22557;-76
2023/03/10 00:46:18;;;;;;;8.40;3.80;;;;;;;7.76;85.92;97098.64;218466;1289;22559;-75
2023/03/10 00:51:22;;;;;;;4.70;3.20;;;;;;;7.73;85.83;97092.10;218432;1292;24277;-76
2023/03/10 00:56:25;;;;;;;4.70;2.60;;;;;;;7.75;85.38;97086.16;218552;1293;24307;-77
2023/03/10 01:01:36;;;;;;;4.40;2.30;;;;;;;7.78;85.31;97083.95;218814;1289;22617;-76
2023/03/10 01:06:38;;;;;;;5.40;2.00;;;;;;;7.81;85.22;97088.23;218561;1296;22556;-76
2023/03/10 01:11:41;;;;;;;3.60;1.80;;;;;;;7.87;84.68;97069.47;218910;1295;22550;-76
2023/03/10 01:16:44;;;;;;;4.10;2.10;;;;;;;7.87;84.29;97065.09;218374;1297;23940;-76
2023/03/10 01:21:48;;;;;;;3.50;1.90;;;;;;;7.87;84.40;97074.67;218490;1294;24321;-75
2023/03/10 01:26:50;;;;;;;3.60;1.80;;;;;;;7.83;84.37;97074.19;218586;1295;22983;-75
2023/03/10 01:31:52;;;;;;;3.30;2.00;;;;;;;7.74;83.94;97062.73;218886;1293;24162;-76
2023/03/10 01:36:54;;;;;;;3.50;1.80;;;;;;;7.65;84.07;97060.23;218753;1295;24216;-76
2023/03/10 01:41:56;;;;;;;3.60;1.90;;;;;;;7.58;84.01;97058.04;218445;1296;24297;-76
2023/03/10 01:46:58;;;;;;;5.00;2.10;;;;;;;7.51;83.97;97054.17;218640;1296;25306;-74
2023/03/10 01:52:20;;;;;;;5.30;2.00;;;;;;;7.45;84.10;97049.02;218619;1293;22798;-76
2023/03/10 01:57:28;;;;;;;4.00;2.00;;;;;;;7.39;83.87;97043.96;218605;1292;22745;-75
2023/03/10 02:02:34;;;;;;;;;;;;;;;7.39;84.07;97040.89;218651;1297;22555;-75
2023/03/10 02:07:36;;;;;;;5.10;2.20;;;;;;;7.36;84.14;97038.08;218424;1297;22661;-76
2023/03/10 02:12:44;;;;;;;4.40;2.30;;;;;;;7.34;84.11;97037.92;218698;1295;22572;-76
2023/03/10 02:17:49;;;;;;;4.00;1.80;;;;;;;7.28;84.21;97026.75;218663;1297;22574;-75
2023/03/10 02:22:52;;;;;;;3.90;2.20;;;;;;;7.26;84.03;97015.39;218841;1289;22595;-76
2023/03/10 02:27:55;;;;;;;2.60;1.80;;;;;;;7.21;83.79;97012.30;218759;1297;25366;-76
2023/03/10 02:33:06;;;;;;;2.50;1.70;;;;;;;7.20;84.26;97010.55;218560;1293;22608;-75
2023/03/10 02:38:08;;;;;;;2.60;1.50;;;;;;;7.22;84.16;97001.38;218764;1292;22587;-75
2023/03/10 02:43:31;;;;;;;3.70;1.90;;;;;;;7.21;84.27;96991.89;218342;1289;22678;-75
2023/03/10 02:48:45;;;;;;;5.00;1.70;;;;;;;7.22;84.34;96995.84;218612;1295;22691;-75
2023/03/10 02:53:55;;;;;;;4.40;1.80;;;;;;;7.30;84.43;96992.63;218356;1297;23045;-75
2023/03/10 02:58:58;;;;;;;3.70;1.50;;;;;;;7.34;84.02;96988.63;218770;1297;22543;-76
2023/03/10 03:04:01;;;;;;;5.00;2.30;;;;;;;7.36;83.87;96981.02;218856;1295;23810;-76
2023/03/10 03:09:04;;;;;;;4.70;2.10;;;;;;;7.36;83.76;96977.61;218781;1280;24963;-75
2023/03/10 03:14:06;;;;;;;4.30;2.10;;;;;;;7.35;83.91;96967.52;218807;1297;26490;-75
2023/03/10 03:19:10;;;;;;;3.80;2.10;;;;;;;7.29;83.60;96956.06;218602;1295;22530;-75
2023/03/10 03:24:12;;;;;;;4.80;2.20;;;;;;;7.24;83.65;96945.73;218558;1295;22560;-75
2023/03/10 03:29:16;;;;;;;5.00;2.30;;;;;;;7.19;83.50;96946.60;218860;1293;22565;-76
2023/03/10 03:34:19;;;;;;;3.20;1.90;;;;;;;7.15;83.47;96939.88;218857;1294;22698;-76
2023/03/10 03:39:23;;;;;;;3.50;2.00;;;;;;;7.10;83.53;96942.63;218516;1294;24314;-76
2023/03/10 03:44:29;;;;;;;4.50;2.80;;;;;;;7.05;83.29;96935.38;218777;1291;22514;-76
2023/03/10 03:49:32;;;;;;;4.40;2.40;;;;;;;6.98;83.41;96935.58;218681;1295;24244;-76
2023/03/10 03:54:34;;;;;;;4.50;2.70;;;;;;;6.88;83.64;96936.80;218904;1293;24557;-75
2023/03/10 03:59:36;;;;;;;6.90;3.60;;;;;;;6.78;83.25;96930.77;218900;1293;24388;-76
2023/03/10 04:04:38;;;;;;;9.20;3.50;;;;;;;6.68;83.75;96923.38;218811;1295;22564;-75
2023/03/10 04:09:41;;;;;;;5.60;3.20;;;;;;;6.62;83.98;96915.85;218629;1294;22586;-76
2023/03/10 04:14:44;;;;;;;6.70;4.00;;;;;;;6.59;83.93;96912.23;218961;1292;22549;-75
2023/03/10 04:19:46;;;;;;;7.60;4.30;;;;;;;6.53;84.26;96900.27;218771;1297;22572;-76
2023/03/10 04:25:08;;;;;;;5.80;3.90;;;;;;;6.46;83.81;96894.81;218776;1293;22565;-76
2023/03/10 04:30:12;;;;;;;10.00;4.60;;;;;;;6.41;84.28;96893.29;218583;1295;22594;-76
2023/03/10 04:35:17;;;;;;;10.40;5.80;;;;;;;6.37;84.40;96883.23;218571;1294;24297;-76
2023/03/10 04:40:20;;;;;;;9.10;5.30;;;;;;;6.30;83.99;96873.52;218658;1295;22723;-75
2023/03/10 04:45:22;;;;;;;9.30;4.80;;;;;;;6.20;84.13;96868.85;218542;1295;22542;-76
2023/03/10 04:50:26;;;;;;;9.10;4.90;;;;;;;6.13;84.18;96863.38;218600;1297;24444;-75
2023/03/10 04:55:29;;;;;;;10.30;5.40;;;;;;;6.05;84.38;96861.15;218884;1292;22603;-76
2023/03/10 05:00:33;;;;;;;7.30;5.80;;;;;;;5.96;84.53;96859.80;218803;1289;22566;-76
2023/03/10 05:05:36;;;;;;;9.50;7.90;;;;;;;5.86;84.49;96846.95;218912;1293;22923;-74
2023/03/10 05:10:41;;;;;;;11.00;8.90;;;;;;;5.77;84.70;96834.39;218915;1292;23821;-75
2023/03/10 05:15:43;;;;;;;11.80;8.70;;;;;;;5.71;84.78;96827.31;218674;1295;24443;-75
2023/03/10 05:20:55;;;;;;;13.80;9.50;;;;;;;5.68;84.96;96825.17;218811;1279;23806;-75
2023/03/10 05:25:57;;;;;;;14.90;9.60;;;;;;;5.71;85.04;96818.73;218995;1297;24413;-75
2023/03/10 05:31:00;;;;;;;14.30;9.80;;;;;;;5.77;85.20;96807.11;218495;1295;24247;-74
2023/03/10 05:36:08;;;;;;;13.10;9.30;;;;;;;5.83;85.32;96803.84;218419;1295;24265;-77
2023/03/10 05:41:11;;;;;;;15.40;10.60;;;;;;;5.90;85.19;96798.98;218815;1289;22565;-75
2023/03/10 05:46:14;;;;;;;15.90;10.30;;;;;;;6.01;85.39;96794.23;218925;1289;25280;-75
2023/03/10 05:51:23;;;;;;;15.20;10.90;;;;;;;6.13;85.42;96784.69;218280;1297;22677;-75
2023/03/10 05:56:25;;;;;;;14.70;10.20;;;;;;;6.28;85.54;96782.23;218900;1295;24291;-75
2023/03/10 06:01:31;;;;;;;17.90;12.00;;;;;;;6.42;85.31;96772.77;218631;1295;22546;-74
2023/03/10 06:06:33;;;;;;;19.50;11.30;;;;;;;6.55;85.08;96766.10;218470;1295;25319;-76
2023/03/10 06:11:35;;;;;;;14.70;10.30;;;;;;;6.70;85.01;96756.87;218817;1291;22790;-76
2023/03/10 06:16:38;;;;;;;14.10;10.00;;;;;;;6.85;84.82;96750.05;218592;1292;22566;-75
2023/03/10 06:21:39;;;;;;;16.70;9.10;;;;;;;7.11;84.87;96747.45;218595;1292;22563;-75
2023/03/10 06:26:42;;;;;;;12.30;8.50;;;;;;;7.47;85.12;96736.75;218888;1292;25451;-77
2023/03/10 06:31:44;;;;;;;13.30;6.90;;;;;;;7.83;84.75;96725.90;218358;1295;24252;-76
2023/03/10 06:36:46;;;;;;;11.50;7.00;;;;;;;8.14;84.48;96711.59;218505;1294;22550;-76
2023/03/10 06:41:47;;;;;;;11.20;7.30;;;;;;;8.40;84.13;96710.86;218740;1296;23957;-75
2023/03/10 06:46:50;;;;;;;10.90;7.10;;;;;;;8.60;83.29;96703.25;218798;1274;22564;-75
2023/03/10 06:51:51;;;;;;;14.80;7.60;;;;;;;8.73;82.69;96697.05;219067;1276;25961;-75
2023/03/10 06:56:53;;;;;;;11.50;7.60;;;;;;;8.80;82.37;96696.48;219156;1286;24293;-76
2023/03/10 07:01:55;;;;;;;15.80;8.20;;;;;;;8.83;81.80;96695.91;219268;1280;22497;-75
2023/03/10 07:06:58;;;;;;;13.10;7.40;;;;;;;8.85;81.61;96698.44;219239;1282;23048;-76
2023/03/10 07:12:00;;;;;;;16.30;7.70;;;;;;;8.92;81.27;96696.95;219147;1275;24253;-76
2023/03/10 07:17:02;;;;;;;15.10;7.80;;;;;;;9.08;81.70;96691.75;219234;1284;22553;-76
2023/03/10 07:22:04;;;;;;;10.50;6.40;;;;;;;9.26;81.49;96693.07;219112;1286;22588;-75
2023/03/10 07:27:07;;;;;;;13.20;6.50;;;;;;;9.47;81.57;96689.85;218754;1276;26559;-76
2023/03/10 07:32:09;;;;;;;11.20;6.30;;;;;;;9.81;81.67;96674.91;218732;1281;22627;-76
2023/03/10 07:37:11;;;;;;;13.50;6.90;;;;;;;10.10;81.13;96672.77;218567;1283;25300;-75
2023/03/10 07:42:13;;;;;;;12.80;7.40;;;;;;;10.34;80.54;96674.05;218981;1283;22556;-75
2023/03/10 07:47:16;;;;;;;12.50;6.00;;;;;;;10.57;80.38;96681.67;218951;1282;23330;-75
2023/03/10 07:52:19;;;;;;;12.80;6.30;;;;;;;10.75;79.80;96683.55;218802;1295;22574;-76
2023/03/10 07:57:21;;;;;;;10.20;6.20;;;;;;;10.82;78.53;96691.54;218978;1289;22834;-76
2023/03/10 08:02:23;;;;;;;10.70;5.80;;;;;;;10.87;78.35;96693.92;218929;1294;25443;-75
2023/03/10 08:07:26;;;;;;;11.30;6.10;;;;;;;11.03;78.48;96688.36;218849;1279;25315;-75
2023/03/10 08:12:28;;;;;;;10.90;6.10;;;;;;;11.28;78.26;96679.34;218616;1279;22576;-75
2023/03/10 08:17:32;;;;;;;11.10;6.10;;;;;;;11.51;78.22;96674.69;218963;1289;22496;-76
2023/03/10 08:22:34;;;;;;;13.20;6.40;;;;;;;11.75;77.84;96676.68;218880;1289;24423;-75
2023/03/10 08:27:36;;;;;;;12.80;6.80;;;;;;;11.95;77.55;96670.52;218888;1282;24432;-75
2023/03/10 08:32:40;;;;;;;12.40;6.00;;;;;;;12.15;77.15;96665.27;218704;1283;22599;-78
2023/03/10 08:37:43;;;;;;;11.80;5.60;;;;;;;12.34;76.40;96662.27;218554;1283;25421;-77
2023/03/10 08:42:46;;;;;;;7.50;3.20;;;;;;;12.53;75.28;96662.29;218752;1290;22610;-77
2023/03/10 08:47:50;;;;;;;5.50;3.50;;;;;;;12.64;73.56;96659.52;218746;1288;25233;-78
2023/03/10 08:52:52;;;;;;;3.50;2.90;;;;;;;12.72;73.45;96659.27;218828;1290;25392;-77
2023/03/10 08:57:57;;;;;;;5.70;3.00;;;;;;;12.87;73.36;96651.42;218732;1283;23625;-77
2023/03/10 09:03:00;;;;;;;5.50;3.00;;;;;;;12.98;73.01;96652.61;218732;1289;22754;-80
2023/03/10 09:08:05;;;;;;;4.70;2.40;;;;;;;13.09;73.05;96649.77;218876;1293;25261;-76
2023/03/10 09:13:07;;;;;;;5.00;2.60;;;;;;;13.24;72.66;96646.44;218940;1295;22671;-77
2023/03/10 09:18:16;;;;;;;4.60;2.70;;;;;;;13.40;71.78;96642.52;218687;1297;24256;-77
2023/03/10 09:23:19;;;;;;;4.10;2.20;;;;;;;13.54;71.62;96633.63;218690;1298;22656;-77
2023/03/10 09:28:21;;;;;;;5.20;2.20;;;;;;;13.66;71.34;96635.10;218271;1298;22659;-77
2023/03/10 09:33:24;;;;;;;3.50;2.10;;;;;;;13.82;71.29;96638.98;218795;1295;22608;-78
2023/03/10 09:38:26;;;;;;;6.50;3.00;;;;;;;13.98;70.78;96638.17;218705;1292;23782;-76
2023/03/10 09:43:32;;;;;;;7.30;3.30;;;;;;;14.25;70.51;96636.84;218403;1296;25369;-76
2023/03/10 09:48:34;;;;;;;7.90;3.60;;;;;;;14.52;70.52;96634.13;218362;1295;24253;-74
2023/03/10 09:53:51;;;;;;;6.30;3.60;;;;;;;14.66;69.35;96629.61;218544;1293;25379;-75
2023/03/10 09:59:15;;;;;;;6.80;4.20;;;;;;;14.62;68.68;96627.97;218551;1297;24817;-75
2023/03/10 10:04:27;;;;;;;8.60;4.20;;;;;;;14.69;68.22;96636.62;218960;1294;22566;-75
2023/03/10 10:09:41;;;;;;;7.00;3.80;;;;;;;14.74;68.36;96636.94;218815;1279;23809;-76
2023/03/10 10:14:44;;;;;;;6.30;3.50;;;;;;;14.74;68.38;96628.96;219051;1274;22548;-77
2023/03/10 10:19:58;;;;;;;5.70;3.30;;;;;;;14.72;67.93;96628.70;218564;1286;22562;-77
2023/03/10 10:25:09;;;;;;;6.90;3.50;;;;;;;14.68;68.08;96629.45;218969;1293;22552;-77
2023/03/10 10:30:39;;;;;;;8.00;3.50;;;;;;;14.70;68.62;96627.59;218766;1279;22576;-77
2023/03/10 10:35:58;;;;;;;6.20;3.80;;;;;;;14.86;68.48;96623.42;218755;1274;22546;-77
2023/03/10 10:41:03;;;;;;;6.80;3.10;;;;;;;15.11;67.95;96615.98;218675;1289;22604;-76
2023/03/10 10:46:09;;;;;;;5.50;3.50;;;;;;;15.32;67.63;96610.66;218864;1276;22565;-76
2023/03/10 10:51:26;;;;;;;4.90;3.50;;;;;;;15.51;67.76;96606.02;218491;1295;22546;-77
2023/03/10 10:56:29;;;;;;;5.90;3.10;;;;;;;15.75;66.72;96606.05;219050;1286;22490;-77
2023/03/10 11:02:26;;;;;;;5.90;3.00;;;;;;;15.88;65.50;96592.80;218785;1279;22818;-78
2023/03/10 11:07:32;;;;;;;4.00;2.80;;;;;;;15.91;63.97;96583.68;218682;1289;23315;-78
2023/03/10 11:12:52;;;;;;;6.40;2.80;;;;;;;15.95;64.34;96578.75;218706;1289;22591;-78
2023/03/10 11:18:07;;;;;;;3.20;2.80;;;;;;;16.18;64.58;96562.88;218768;1291;23778;-78
2023/03/10 11:23:33;;;;;;;4.60;2.50;;;;;;;16.29;62.45;96558.12;218846;1290;22663;-76
2023/03/10 11:29:03;;;;;;;4.40;2.40;;;;;;;16.28;61.27;96545.71;218436;1280;22666;-77
2023/03/10 11:34:29;;;;;;;4.60;2.50;;;;;;;16.23;60.95;96537.69;218475;1292;24317;-76
2023/03/10 11:39:48;;;;;;;3.10;2.20;;;;;;;16.40;61.29;96540.16;218822;1290;22619;-79
2023/03/10 11:45:23;;;;;;;2.70;2.00;;;;;;;16.62;61.33;96538.60;218766;1296;22608;-79
2023/03/10 11:50:34;;;;;;;2.60;2.10;;;;;;;16.70;59.98;96535.54;218635;1297;22676;-79
2023/03/10 11:55:41;;;;;;;4.10;2.60;;;;;;;16.78;61.28;96522.87;218920;1296;22614;-79
2023/03/10 12:00:45;;;;;;;4.40;1.90;;;;;;;16.96;61.44;96529.88;218788;1290;23207;-78
2023/03/10 12:05:53;;;;;;;5.50;2.50;;;;;;;16.93;60.67;96529.17;218505;1292;22550;-77
2023/03/10 12:11:00;;;;;;;4.50;2.10;;;;;;;16.66;59.32;96528.79;218390;1295;22690;-79
2023/03/10 12:16:03;;;;;;;4.80;2.60;;;;;;;16.33;59.42;96523.43;218952;1289;22570;-78
2023/03/10 12:21:15;;;;;;;4.30;2.30;;;;;;;16.18;60.58;96519.04;218767;1283;22566;-79
2023/03/10 12:26:48;;;;;;;5.30;2.50;;;;;;;16.10;60.40;96519.04;218676;1290;25407;-79
2023/03/10 12:31:54;;;;;;;3.70;2.70;;;;;;;15.98;60.73;96517.11;218589;1274;22556;-78
2023/03/10 12:37:11;;;;;;;5.20;2.20;;;;;;;16.03;61.27;96510.94;218882;1292;24262;-79
2023/03/10 12:42:33;;;;;;;5.60;2.70;;;;;;;16.13;61.25;96507.23;218496;1297;24769;-77
2023/03/10 12:47:49;;;;;;;3.10;2.10;;;;;;;16.21;61.16;96508.13;218973;1294;22637;-77
2023/03/10 12:53:04;;;;;;;4.00;2.30;;;;;;;16.18;60.70;96504.43;218916;1293;22615;-78
2023/03/10 12:58:17;;;;;;;5.40;2.40;;;;;;;16.17;60.76;96502.42;218860;1292;22569;-78
2023/03/10 13:03:28;;;;;;;5.80;2.70;;;;;;;16.22;60.80;96504.17;218796;1295;22668;-80
2023/03/10 13:08:46;;;;;;;6.40;2.50;;;;;;;16.34;61.08;96508.77;218940;1290;22705;-79
2023/03/10 13:13:57;;;;;;;3.80;3.00;;;;;;;16.47;60.62;96500.11;218931;1289;22543;-77
2023/03/10 13:19:00;;;;;;;5.30;3.00;;;;;;;16.54;61.01;96498.13;218856;1291;22575;-77
2023/03/10 13:24:25;;;;;;;7.20;3.20;;;;;;;16.55;60.84;96488.80;218793;1292;22552;-78
2023/03/10 13:29:27;;;;;;;5.80;2.70;;;;;;;16.49;60.87;96484.90;218610;1286;25267;-77
2023/03/10 13:34:32;;;;;;;5.10;2.60;;;;;;;16.33;60.56;96488.15;218836;1295;22565;-80
2023/03/10 13:39:35;;;;;;;4.90;2.70;;;;;;;16.22;60.19;96487.83;218948;1295;22669;-78
2023/03/10 13:44:39;;;;;;;5.10;2.50;;;;;;;16.09;60.57;96481.91;218658;1289;22575;-77
2023/03/10 13:49:48;;;;;;;4.20;2.40;;;;;;;16.07;61.06;96487.73;218310;1283;22579;-77
2023/03/10 13:55:03;;;;;;;4.20;2.40;;;;;;;16.04;60.82;96479.06;218338;1292;24274;-79
2023/03/10 14:00:09;;;;;;;9.80;3.40;;;;;;;16.00;60.86;96472.52;218432;1289;22578;-78
2023/03/10 14:05:42;;;;;;;7.30;3.20;;;;;;;15.83;60.73;96458.31;218774;1290;24265;-76
2023/03/10 14:10:44;;;;;;;4.60;2.80;;;;;;;15.69;61.31;96453.73;218650;1279;22563;-77
2023/03/10 14:15:54;;;;;;;6.20;3.00;;;;;;;15.68;61.17;96446.19;218394;1289;22545;-76
2023/03/10 14:20:56;;;;;;;5.30;3.00;;;;;;;15.67;61.17;96442.52;218417;1286;22547;-77
2023/03/10 14:25:59;;;;;;;6.10;3.10;;;;;;;15.69;60.85;96439.21;218249;1289;24365;-76
2023/03/10 14:31:03;;;;;;;5.80;3.40;;;;;;;15.68;61.25;96440.00;218690;1283;24119;-76
2023/03/10 14:36:10;;;;;;;5.90;3.00;;;;;;;15.64;61.24;96435.51;219063;1289;22590;-77
2023/03/10 14:41:14;;;;;;;5.10;3.10;;;;;;;15.54;61.32;96427.95;218790;1274;24279;-77
2023/03/10 14:46:16;;;;;;;5.20;3.40;;;;;;;15.45;61.46;96420.12;219151;1290;22554;-77
2023/03/10 14:51:19;;;;;;;4.70;3.20;;;;;;;15.38;61.54;96419.70;219038;1290;22728;-77
2023/03/10 14:56:36;;;;;;;4.60;3.00;;;;;;;15.33;61.57;96417.11;218918;1290;24451;-78
2023/03/10 15:01:39;;;;;;;6.40;4.20;;;;;;;15.32;61.50;96414.51;218669;1290;22613;-76
2023/03/10 15:06:45;;;;;;;5.60;3.60;;;;;;;15.30;61.70;96408.98;218500;1298;22622;-77
2023/03/10 15:11:47;;;;;;;4.50;3.20;;;;;;;15.24;61.80;96407.23;218802;1293;22695;-76
2023/03/10 15:16:49;;;;;;;8.90;4.00;;;;;;;15.15;61.62;96399.39;218202;1295;24370;-77
2023/03/10 15:21:52;;;;;;;6.20;3.60;;;;;;;15.03;61.78;96403.30;218419;1296;22597;-77
2023/03/10 15:26:55;;;;;;;6.70;4.30;;;;;;;14.88;61.41;96395.20;218138;1298;25508;-77
2023/03/10 15:31:57;;;;;;;7.30;3.70;;;;;;;14.74;61.57;96383.84;218222;1295;23777;-78
2023/03/10 15:36:59;;;;;;;5.10;3.40;;;;;;;14.59;61.35;96377.79;218663;1293;25273;-77
2023/03/10 15:42:03;;;;;;;4.30;3.00;;;;;;;14.42;61.71;96374.39;218509;1297;22678;-79
2023/03/10 15:47:05;;;;;;;5.70;3.50;;;;;;;14.29;61.95;96380.73;218690;1295;23089;-77
2023/03/10 15:52:08;;;;;;;6.80;3.80;;;;;;;14.17;62.51;96369.77;218751;1297;22617;-76
2023/03/10 15:57:10;;;;;;;6.70;4.20;;;;;;;14.05;62.43;96365.02;218685;1297;24340;-78
2023/03/10 16:02:14;;;;;;;7.10;4.90;;;;;;;13.92;62.93;96364.20;218541;1292;25333;-78
2023/03/10 16:07:16;;;;;;;8.10;5.60;;;;;;;13.76;63.15;96364.07;218515;1295;24253;-78
2023/03/10 16:12:21;;;;;;;12.90;7.10;;;;;;;13.57;63.49;96364.51;218719;1296;23297;-78
2023/03/10 16:17:23;;;;;;;12.40;7.60;;;;;;;13.36;63.86;96362.75;218941;1292;22552;-78
2023/03/10 16:22:27;;;;;;;9.90;7.30;;;;;;;13.14;64.45;96360.33;218598;1274;22584;-78
2023/03/10 16:27:30;;;;;;;13.70;8.10;;;;;;;12.94;64.87;96362.84;218812;1296;22551;-77
2023/03/10 16:32:32;;;;;;;17.70;8.30;;;;;;;12.74;65.23;96361.30;218526;1296;22558;-78
2023/03/10 16:37:34;;;;;;;13.50;8.10;;;;;;;12.56;65.71;96363.63;218034;1297;22666;-78
2023/03/10 16:42:37;;;;;;;11.80;7.40;;;;;;;12.38;66.10;96363.88;218666;1297;25487;-77
2023/03/10 16:47:41;;;;;;;13.50;8.10;;;;;;;12.23;66.54;96367.93;218671;1295;24303;-77
2023/03/10 16:52:43;;;;;;;13.10;8.40;;;;;;;12.09;66.93;96371.40;218677;1297;22962;-77
2023/03/10 16:57:46;;;;;;;14.90;8.40;;;;;;;11.97;67.39;96369.55;218417;1295;23411;-77
2023/03/10 17:02:48;;;;;;;14.10;9.00;;;;;;;11.89;67.98;96365.37;218313;1296;22620;-78
2023/03/10 17:07:51;;;;;;;16.00;9.50;;;;;;;11.83;68.22;96362.32;218569;1293;24278;-77
2023/03/10 17:12:57;;;;;;;17.70;11.80;;;;;;;11.73;68.26;96360.58;218878;1290;22647;-76
2023/03/10 17:17:59;;;;;;;21.20;12.40;;;;;;;11.61;68.63;96357.95;218772;1293;22687;-78
2023/03/10 17:23:02;;;;;;;16.20;10.60;;;;;;;11.52;69.17;96353.35;218554;1296;22550;-79
2023/03/10 17:28:07;;;;;;;16.90;10.90;;;;;;;11.45;69.32;96346.84;218572;1290;22561;-77
2023/03/10 17:33:09;;;;;;;14.60;10.70;;;;;;;11.38;69.68;96352.88;218683;1295;24310;-78
2023/03/10 17:38:11;;;;;;;15.20;11.60;;;;;;;11.31;69.82;96352.80;218663;1295;22678;-79
2023/03/10 17:43:13;;;;;;;17.90;11.10;;;;;;;11.23;70.04;96348.52;218318;1297;22556;-81
2023/03/10 17:48:35;;;;;;;21.20;12.30;;;;;;;11.17;70.30;96346.19;218337;1297;23836;-78
2023/03/10 17:53:38;;;;;;;21.70;12.20;;;;;;;11.13;70.42;96348.21;218415;1292;22571;-77
2023/03/10 17:58:42;;;;;;;20.50;13.00;;;;;;;11.09;70.91;96350.77;218348;1297;22555;-78
2023/03/10 18:03:45;;;;;;;24.80;14.90;;;;;;;11.07;70.85;96351.92;218723;1295;22603;-77
2023/03/10 18:08:50;;;;;;;22.80;14.90;;;;;;;11.07;71.08;96356.09;218559;1296;23943;-77
2023/03/10 18:13:52;;;;;;;28.80;16.60;;;;;;;11.04;70.93;96354.47;218838;1297;24422;-76
2023/03/10 18:18:57;;;;;;;30.20;17.60;;;;;;;11.00;71.32;96352.16;218868;1274;25524;-77
2023/03/10 18:24:00;;;;;;;22.70;13.30;;;;;;;10.94;71.64;96347.10;218638;1297;24277;-77
2023/03/10 18:29:03;;;;;;;19.60;11.60;;;;;;;10.88;71.81;96345.45;218384;1295;24305;-76
2023/03/10 18:34:05;;;;;;;17.50;10.80;;;;;;;10.80;72.05;96341.66;218690;1296;22547;-77
2023/03/10 18:39:09;;;;;;;18.10;11.10;;;;;;;10.72;72.39;96339.84;218454;1296;25376;-76
2023/03/10 18:44:14;;;;;;;19.50;11.20;;;;;;;10.63;72.38;96336.17;218596;1295;24353;-78
2023/03/10 18:49:17;;;;;;;17.80;11.30;;;;;;;10.56;72.55;96338.36;218925;1296;22588;-77
2023/03/10 18:54:19;;;;;;;15.70;10.60;;;;;;;10.49;72.87;96340.03;218709;1296;22547;-77
2023/03/10 18:59:22;;;;;;;19.70;11.00;;;;;;;10.42;72.80;96335.35;218638;1296;23030;-77
2023/03/10 19:04:25;;;;;;;16.40;11.20;;;;;;;10.34;73.28;96334.53;218835;1296;24317;-78
2023/03/10 19:09:27;;;;;;;16.90;10.60;;;;;;;10.26;73.31;96331.84;218510;1290;22646;-78
2023/03/10 19:14:34;;;;;;;15.00;10.50;;;;;;;10.19;73.37;96325.80;218716;1296;25360;-78
2023/03/10 19:19:36;;;;;;;16.50;10.80;;;;;;;10.11;73.84;96327.73;218173;1295;24793;-77
2023/03/10 19:24:38;;;;;;;17.70;10.70;;;;;;;10.00;73.97;96327.91;218471;1293;24347;-77
2023/03/10 19:29:41;;;;;;;18.10;10.80;;;;;;;9.88;74.03;96329.02;218726;1294;26675;-77
2023/03/10 19:34:45;;;;;;;17.40;11.60;;;;;;;9.73;74.42;96327.75;218895;1296;24404;-77
2023/03/10 19:39:48;;;;;;;17.40;10.80;;;;;;;9.59;74.40;96326.23;218498;1296;24256;-77
2023/03/10 19:44:50;;;;;;;21.50;12.30;;;;;;;9.48;74.91;96323.02;218569;1294;24330;-76
2023/03/10 19:49:53;;;;;;;18.70;12.10;;;;;;;9.43;75.09;96324.41;218609;1295;22884;-77
2023/03/10 19:54:55;;;;;;;19.30;12.10;;;;;;;9.44;75.56;96319.17;218626;1292;22642;-78
2023/03/10 19:59:58;;;;;;;19.80;12.80;;;;;;;9.47;75.67;96317.38;218477;1294;24443;-76
2023/03/10 20:05:01;;;;;;;19.30;12.00;;;;;;;9.52;75.85;96315.95;218695;1296;22692;-76
2023/03/10 20:10:04;;;;;;;18.60;12.50;;;;;;;9.57;75.66;96312.02;218897;1294;23512;-78
2023/03/10 20:15:08;;;;;;;21.20;13.20;;;;;;;9.59;75.81;96307.42;218432;1296;25400;-77
2023/03/10 20:20:13;;;;;;;20.00;13.30;;;;;;;9.62;76.04;96305.34;218779;1289;26826;-78
2023/03/10 20:25:19;;;;;;;22.00;13.60;;;;;;;9.63;76.25;96298.77;218051;1292;25300;-77
2023/03/10 20:30:28;;;;;;;21.20;13.00;;;;;;;9.63;76.40;96297.57;218701;1293;25322;-78
2023/03/10 20:35:32;;;;;;;21.30;13.40;;;;;;;9.63;76.13;96286.65;218549;1295;24400;-76
2023/03/10 20:40:37;;;;;;;25.50;15.90;;;;;;;9.62;76.39;96279.05;218837;1296;22549;-77
2023/03/10 20:45:41;;;;;;;25.50;15.70;;;;;;;9.62;76.34;96277.89;218921;1296;22536;-76
2023/03/10 20:50:43;;;;;;;25.20;15.50;;;;;;;9.61;76.24;96274.17;218652;1289;23796;-77
2023/03/10 20:55:46;;;;;;;26.50;16.00;;;;;;;9.61;76.04;96269.55;218587;1294;25262;-78
2023/03/10 21:00:48;;;;;;;26.50;16.20;;;;;;;9.61;76.44;96265.73;218994;1296;24585;-76
2023/03/10 21:05:50;;;;;;;28.90;16.40;;;;;;;9.60;76.73;96258.71;218354;1292;22559;-75
2023/03/10 21:10:52;;;;;;;24.90;16.50;;;;;;;9.59;76.61;96261.02;218851;1296;24390;-77
2023/03/10 21:15:54;;;;;;;27.60;15.90;;;;;;;9.59;76.83;96262.30;218390;1289;24288;-76
2023/03/10 21:20:57;;;;;;;27.70;16.80;;;;;;;9.58;76.75;96252.89;218977;1293;22687;-77
2023/03/10 21:25:59;;;;;;;25.60;15.80;;;;;;;9.55;76.49;96253.69;218643;1296;22606;-77
2023/03/10 21:31:02;;;;;;;23.20;15.20;;;;;;;9.53;76.52;96242.27;218829;1296;22553;-77
2023/03/10 21:36:05;;;;;;;22.30;14.60;;;;;;;9.51;76.60;96240.30;218420;1296;24417;-76
2023/03/10 21:41:13;;;;;;;19.40;13.20;;;;;;;9.51;76.54;96230.02;218646;1292;22546;-77
2023/03/10 21:46:15;;;;;;;21.20;13.20;;;;;;;9.52;76.71;96236.10;218622;1289;22555;-76
2023/03/10 21:51:20;;;;;;;21.10;13.30;;;;;;;9.50;76.67;96231.95;218442;1296;22568;-77
2023/03/10 21:56:24;;;;;;;19.70;12.10;;;;;;;9.43;76.44;96231.30;218351;1296;26582;-76
2023/03/10 22:01:27;;;;;;;18.90;11.60;;;;;;;9.33;75.96;96229.10;218988;1296;22549;-79
2023/03/10 22:06:30;;;;;;;15.70;11.40;;;;;;;9.22;76.05;96230.20;218901;1292;22637;-76
2023/03/10 22:11:33;;;;;;;19.70;11.70;;;;;;;9.13;76.18;96229.76;218160;1295;24318;-77
2023/03/10 22:16:35;;;;;;;18.30;12.70;;;;;;;9.04;76.36;96231.69;218557;1295;24322;-77
2023/03/10 22:21:37;;;;;;;17.10;11.10;;;;;;;8.97;76.51;96233.31;218422;1296;25433;-77
2023/03/10 22:26:39;;;;;;;18.10;11.40;;;;;;;8.90;75.90;96225.20;218758;1292;22555;-76
2023/03/10 22:31:42;;;;;;;16.50;11.10;;;;;;;8.85;76.19;96228.39;218629;1296;22552;-76
2023/03/10 22:36:43;;;;;;;17.40;11.90;;;;;;;8.82;76.13;96220.19;218532;1281;23114;-77
2023/03/10 22:41:46;;;;;;;16.90;12.20;;;;;;;8.77;76.05;96219.33;218921;1289;22545;-77
2023/03/10 22:46:50;;;;;;;20.80;12.90;;;;;;;8.73;76.04;96218.36;218814;1289;22573;-77
2023/03/10 22:51:54;;;;;;;21.80;12.70;;;;;;;8.71;76.26;96218.59;218473;1292;22549;-77
2023/03/10 22:56:56;;;;;;;19.40;12.40;;;;;;;8.71;76.31;96217.38;218778;1273;25846;-77
2023/03/10 23:01:58;;;;;;;18.80;11.40;;;;;;;8.73;75.91;96217.15;218580;1296;25512;-77
2023/03/10 23:07:00;;;;;;;14.10;9.00;;;;;;;8.75;76.50;96213.55;218755;1295;24499;-76
2023/03/10 23:12:03;;;;;;;9.80;5.70;;;;;;;8.84;76.18;96211.47;218761;1294;22553;-77
2023/03/10 23:17:05;;;;;;;4.20;3.30;;;;;;;8.98;75.60;96207.25;218466;1296;266034;-76
2023/03/10 23:22:07;;;;;;;5.20;3.10;;;;;;;9.12;75.42;96207.40;218818;1296;22543;-77
2023/03/10 23:27:10;;;;;;;3.70;2.20;;;;;;;9.22;75.07;96209.45;218903;1289;22550;-78
2023/03/10 23:32:12;;;;;;;3.20;2.00;;;;;;;9.29;74.72;96198.42;218813;1296;25328;-76
2023/03/10 23:37:14;;;;;;;4.50;2.00;;;;;;;9.31;74.37;96199.77;218758;1293;24245;-76